Terminal Aerodrome Forecast
Issued by NWS

Home | Current Version | Previous Version | Text Only | Print | Product List | Glossary On
Versions: 1 2 3 4 5 6 7 8 9 10 11 12 13 14 15 16
000
FTUS46 KSEW 281938 AAA
TAFPAE
TAF AMD
KPAE 281938Z 2820/2918 24008KT P6SM SCT035 BKN080 BKN200
     FM282200 30006KT P6SM FEW035 OVC080
     FM290000 36005KT P6SM SCT035 SCT060 SCT100
     FM290400 VRB04KT P6SM SCT030=

USA.gov is the U.S. government's official web portal to all federal, state and local government web resources and services.